Time;durP1;ratioP1;P1;durP2;ratioP2;P2;SDS_P1;SDS_P2;PMS_P1;PMS_P2;Temp;Humidity;BMP_temperature;BMP_pressure;BME280_temperature;BME280_humidity;BME280_pressure;Samples;Min_cycle;Max_cycle;Signal;HPM_P1;HPM_P2
2022/01/27 00:02:34;;;;;;;1.80;0.50;;;26.10;99.90;;;;;;5083127;28;20220;-76
2022/01/27 00:05:14;;;;;;;5.65;0.57;;;26.30;99.90;;;;;;5082776;28;20269;-75
2022/01/27 00:07:54;;;;;;;2.67;0.85;;;26.50;99.90;;;;;;5077071;28;20196;-74
2022/01/27 00:10:41;;;;;;;2.78;0.70;;;26.80;99.90;;;;;;5075541;28;20219;-76
2022/01/27 00:13:14;;;;;;;3.40;0.82;;;26.90;99.90;;;;;;5090866;28;20599;-76
2022/01/27 00:15:46;;;;;;;4.32;0.70;;;27.00;99.90;;;;;;5086915;28;20242;-76
2022/01/27 00:18:18;;;;;;;3.30;0.70;;;27.20;99.90;;;;;;5091096;28;20283;-75
2022/01/27 00:20:50;;;;;;;4.95;0.80;;;27.30;99.90;;;;;;5075742;28;20258;-75
2022/01/27 00:23:21;;;;;;;1.00;0.60;;;27.30;99.90;;;;;;5074836;28;20185;-75
2022/01/27 00:25:51;;;;;;;4.57;0.60;;;27.10;99.90;;;;;;5094300;28;20196;-75
2022/01/27 00:28:22;;;;;;;4.55;0.60;;;27.30;99.90;;;;;;5088594;28;20189;-76
2022/01/27 00:30:53;;;;;;;6.40;0.80;;;27.30;99.90;;;;;;5078456;28;20222;-75
2022/01/27 00:33:25;;;;;;;5.20;0.70;;;27.30;99.90;;;;;;5083155;28;20189;-75
2022/01/27 00:35:57;;;;;;;4.38;0.77;;;27.40;99.90;;;;;;5075213;28;20200;-74
2022/01/27 00:38:28;;;;;;;2.55;0.50;;;27.60;99.90;;;;;;5088952;28;20210;-75
2022/01/27 00:40:59;;;;;;;2.90;0.65;;;27.60;99.90;;;;;;5094753;28;20204;-76
2022/01/27 00:43:29;;;;;;;2.60;0.75;;;27.70;99.90;;;;;;5081264;28;20189;-74
2022/01/27 00:46:00;;;;;;;8.70;0.85;;;27.60;99.90;;;;;;5091158;28;20192;-75
2022/01/27 00:48:33;;;;;;;7.40;0.93;;;27.70;99.90;;;;;;5083416;28;20193;-75
2022/01/27 00:51:06;;;;;;;2.38;0.70;;;27.80;99.90;;;;;;5075093;28;20204;-76
2022/01/27 00:53:44;;;;;;;3.50;0.70;;;27.80;99.90;;;;;;5095036;28;20265;-75
2022/01/27 00:56:23;;;;;;;3.20;0.60;;;27.80;99.90;;;;;;5084302;28;20250;-76
2022/01/27 00:59:02;;;;;;;2.03;0.50;;;27.80;99.90;;;;;;5081094;28;20194;-75
2022/01/27 01:01:39;;;;;;;5.18;0.60;;;27.80;99.90;;;;;;5081038;28;20567;-75
2022/01/27 01:04:12;;;;;;;3.75;0.57;;;27.90;99.90;;;;;;5080930;28;20629;-76
2022/01/27 01:06:45;;;;;;;2.17;0.55;;;27.80;99.90;;;;;;5078869;28;20814;-76
2022/01/27 01:12:45;;;;;;;4.95;0.82;;;27.90;99.90;;;;;;5088071;28;20261;-76
2022/01/27 01:15:13;;;;;;;4.03;0.65;;;27.90;99.90;;;;;;5084144;28;20203;-75
2022/01/27 01:17:58;;;;;;;4.22;0.90;;;28.00;99.90;;;;;;5085219;28;20192;-75
2022/01/27 01:20:48;;;;;;;4.45;0.65;;;27.90;99.90;;;;;;5078860;28;20185;-76
2022/01/27 01:31:53;;;;;;;3.63;0.73;;;27.80;99.90;;;;;;5079226;28;20188;-76
2022/01/27 01:34:27;;;;;;;3.05;0.50;;;27.40;99.90;;;;;;5086337;28;20189;-76
2022/01/27 01:37:02;;;;;;;3.13;0.60;;;27.30;99.90;;;;;;5080600;28;20197;-75
2022/01/27 01:39:34;;;;;;;4.45;0.77;;;27.30;99.90;;;;;;5085067;28;20184;-75
2022/01/27 01:42:07;;;;;;;2.03;0.50;;;27.50;99.90;;;;;;5080718;28;20215;-75
2022/01/27 01:44:38;;;;;;;4.15;0.60;;;27.70;99.90;;;;;;5083322;28;20189;-75
2022/01/27 01:47:09;;;;;;;3.38;0.60;;;27.80;99.90;;;;;;5091116;28;20196;-75
2022/01/27 01:49:40;;;;;;;3.90;0.45;;;27.70;99.90;;;;;;5081437;28;20262;-74
2022/01/27 01:52:12;;;;;;;2.72;0.57;;;27.60;99.90;;;;;;5084692;28;20200;-75
2022/01/27 01:54:44;;;;;;;3.55;0.47;;;27.40;99.90;;;;;;5079478;28;20247;-74
2022/01/27 01:57:15;;;;;;;1.88;0.50;;;27.30;99.90;;;;;;5078055;28;20235;-74
2022/01/27 01:59:46;;;;;;;2.42;0.75;;;27.10;99.90;;;;;;5072525;28;20603;-77
2022/01/27 02:02:16;;;;;;;4.30;0.80;;;27.00;99.90;;;;;;5072280;28;20205;-75
2022/01/27 02:04:48;;;;;;;3.85;0.80;;;27.00;99.90;;;;;;5072943;28;20601;-76
2022/01/27 02:07:31;;;;;;;3.60;0.70;;;26.90;99.90;;;;;;5072928;28;20636;-74
2022/01/27 02:10:15;;;;;;;3.33;0.52;;;26.90;99.90;;;;;;5072696;28;20655;-75
2022/01/27 02:18:16;;;;;;;3.65;0.70;;;26.90;99.90;;;;;;5090658;28;20195;-73
2022/01/27 02:20:48;;;;;;;2.47;0.60;;;27.10;99.90;;;;;;5080275;28;20238;-75
2022/01/27 02:23:19;;;;;;;3.50;0.80;;;27.20;99.90;;;;;;5075654;28;20185;-75
2022/01/27 02:25:50;;;;;;;4.95;0.75;;;27.10;99.90;;;;;;5075016;28;20196;-76
2022/01/27 02:28:21;;;;;;;4.03;0.60;;;27.20;99.90;;;;;;5083694;28;20242;-76
2022/01/27 02:30:52;;;;;;;6.40;0.90;;;27.10;99.90;;;;;;5085827;28;20651;-75
2022/01/27 02:33:33;;;;;;;3.17;0.70;;;27.20;99.90;;;;;;5084750;28;20655;-75
2022/01/27 02:36:06;;;;;;;3.95;0.60;;;27.60;99.90;;;;;;5082746;28;20195;-76
2022/01/27 02:38:37;;;;;;;6.57;0.68;;;27.70;99.90;;;;;;5091729;28;20189;-76
2022/01/27 02:41:14;;;;;;;4.20;0.70;;;27.90;99.90;;;;;;5073491;28;20205;-74
2022/01/27 02:43:44;;;;;;;4.47;0.82;;;27.60;99.90;;;;;;5088244;28;20184;-74
2022/01/27 02:46:23;;;;;;;4.07;0.63;;;27.30;99.90;;;;;;5083528;28;21860;-74
2022/01/27 02:48:54;;;;;;;3.95;0.52;;;27.40;99.90;;;;;;5081061;28;20766;-75
2022/01/27 02:51:26;;;;;;;4.43;0.70;;;27.70;99.90;;;;;;5077889;28;20625;-75
2022/01/27 02:53:59;;;;;;;3.58;0.60;;;27.90;99.90;;;;;;5083420;28;20184;-73
2022/01/27 02:56:30;;;;;;;4.88;0.75;;;27.80;99.90;;;;;;5083016;28;20316;-74
2022/01/27 02:59:03;;;;;;;7.95;0.90;;;27.60;99.90;;;;;;5080542;28;20220;-76
2022/01/27 03:01:34;;;;;;;5.32;0.80;;;27.60;99.90;;;;;;5086436;28;20211;-74
2022/01/27 03:04:05;;;;;;;5.22;0.70;;;27.50;99.90;;;;;;5072885;28;20266;-75
2022/01/27 03:06:37;;;;;;;5.28;0.88;;;27.50;99.90;;;;;;5072639;28;20601;-74
2022/01/27 03:09:08;;;;;;;4.18;0.90;;;27.50;99.90;;;;;;5072327;28;20185;-76
2022/01/27 03:11:45;;;;;;;3.92;0.60;;;27.50;99.90;;;;;;5080663;28;20254;-75
2022/01/27 03:14:16;;;;;;;3.72;0.47;;;27.50;99.90;;;;;;5089158;28;20231;-73
2022/01/27 03:16:47;;;;;;;4.88;0.63;;;27.60;99.90;;;;;;5072430;28;20193;-75
2022/01/27 03:19:19;;;;;;;4.10;0.80;;;27.50;99.90;;;;;;5080417;28;20197;-75
2022/01/27 03:21:54;;;;;;;2.60;0.73;;;27.60;99.90;;;;;;5091798;28;20689;-75
2022/01/27 03:24:25;;;;;;;4.47;0.63;;;27.60;99.90;;;;;;5082993;28;20560;-75
2022/01/27 03:26:57;;;;;;;5.88;1.05;;;27.40;99.90;;;;;;5077538;28;20188;-75
2022/01/27 03:29:28;;;;;;;3.33;0.70;;;27.50;99.90;;;;;;5072435;28;20185;-75
2022/01/27 03:31:59;;;;;;;3.03;0.90;;;27.50;99.90;;;;;;5073460;28;20185;-74
2022/01/27 03:34:29;;;;;;;4.47;0.70;;;27.60;99.90;;;;;;5072630;28;20200;-75
2022/01/27 03:37:02;;;;;;;4.03;0.57;;;27.40;99.90;;;;;;5077848;28;20193;-76
2022/01/27 03:39:36;;;;;;;6.45;0.80;;;27.50;99.90;;;;;;5070857;28;20197;-74
2022/01/27 03:42:07;;;;;;;2.88;0.50;;;27.60;99.90;;;;;;5071741;28;20224;-75
2022/01/27 03:44:38;;;;;;;5.18;0.63;;;27.60;99.90;;;;;;5071895;28;20192;-75
2022/01/27 03:47:09;;;;;;;5.57;0.70;;;27.60;99.90;;;;;;5087308;28;20192;-76
2022/01/27 03:49:40;;;;;;;4.30;0.70;;;27.60;99.90;;;;;;5085587;28;20185;-77
2022/01/27 03:52:12;;;;;;;6.95;0.70;;;27.60;99.90;;;;;;5073088;28;20749;-76
2022/01/27 03:54:44;;;;;;;4.82;0.80;;;27.80;99.90;;;;;;5079677;28;20193;-76
2022/01/27 03:57:14;;;;;;;4.65;0.70;;;27.70;99.90;;;;;;5081368;28;20193;-74
2022/01/27 03:59:46;;;;;;;5.38;0.93;;;27.60;99.90;;;;;;5080477;28;20607;-75
2022/01/27 04:02:17;;;;;;;6.40;0.75;;;27.50;99.90;;;;;;5079583;28;20216;-76
2022/01/27 04:04:47;;;;;;;7.00;0.75;;;27.60;99.90;;;;;;5076617;28;20188;-74
2022/01/27 04:07:20;;;;;;;6.03;0.90;;;27.50;99.90;;;;;;5083265;28;20192;-74
2022/01/27 04:09:50;;;;;;;4.32;1.00;;;27.50;99.90;;;;;;5084495;28;20191;-75
2022/01/27 04:12:21;;;;;;;3.10;0.70;;;27.20;99.90;;;;;;5080588;28;20562;-75
2022/01/27 04:14:52;;;;;;;7.10;0.90;;;27.10;99.90;;;;;;5081495;28;20201;-74
2022/01/27 04:17:22;;;;;;;8.15;0.80;;;27.20;99.90;;;;;;5082493;28;20201;-75
2022/01/27 04:19:53;;;;;;;3.03;0.80;;;27.20;99.90;;;;;;5076898;28;20243;-75
2022/01/27 04:22:26;;;;;;;3.53;0.63;;;27.30;99.90;;;;;;5080921;28;20212;-74
2022/01/27 04:24:56;;;;;;;6.82;0.93;;;27.40;99.90;;;;;;5078885;28;20258;-73
2022/01/27 04:27:31;;;;;;;4.20;1.02;;;27.30;99.90;;;;;;5078616;28;20658;-74
2022/01/27 04:30:04;;;;;;;5.93;1.00;;;27.30;99.90;;;;;;5074904;28;20829;-74
2022/01/27 04:32:42;;;;;;;5.60;1.05;;;27.20;99.90;;;;;;5081716;28;20713;-74
2022/01/27 04:35:16;;;;;;;7.85;1.20;;;26.90;99.90;;;;;;5078586;28;20192;-74
2022/01/27 04:38:11;;;;;;;5.03;0.80;;;26.80;99.90;;;;;;5077615;28;20192;-74
2022/01/27 04:40:49;;;;;;;5.20;0.82;;;27.00;99.90;;;;;;5074949;28;20276;-75
2022/01/27 04:43:26;;;;;;;8.70;1.10;;;27.00;99.90;;;;;;5077363;28;20759;-74
2022/01/27 04:46:05;;;;;;;5.85;1.30;;;27.30;99.90;;;;;;5084568;28;20193;-74
2022/01/27 04:48:39;;;;;;;4.82;0.90;;;27.50;99.90;;;;;;5074895;28;20188;-74
2022/01/27 04:51:14;;;;;;;6.60;1.00;;;27.40;99.90;;;;;;5084975;28;20189;-75
2022/01/27 04:53:51;;;;;;;5.53;0.90;;;27.40;99.90;;;;;;5079556;28;20595;-75
2022/01/27 04:56:24;;;;;;;4.93;1.00;;;27.50;99.90;;;;;;5080046;28;20302;-75
2022/01/27 04:58:59;;;;;;;5.68;0.85;;;27.40;99.90;;;;;;5082786;28;20197;-74
2022/01/27 05:01:34;;;;;;;8.25;1.00;;;27.20;99.90;;;;;;5074598;28;20295;-75
2022/01/27 05:04:09;;;;;;;3.20;0.70;;;27.30;99.90;;;;;;5079531;28;20189;-75
2022/01/27 05:06:40;;;;;;;2.97;0.65;;;27.40;99.90;;;;;;5076934;28;20220;-74
2022/01/27 05:09:13;;;;;;;4.72;0.98;;;27.30;99.90;;;;;;5075505;28;20530;-74
2022/01/27 05:11:50;;;;;;;3.92;0.70;;;27.10;99.90;;;;;;5093556;28;20553;-73
2022/01/27 05:14:23;;;;;;;3.70;0.70;;;27.00;99.90;;;;;;5079441;28;20652;-75
2022/01/27 05:16:54;;;;;;;6.20;0.93;;;26.80;99.90;;;;;;5081453;28;20192;-73
2022/01/27 05:19:24;;;;;;;5.18;0.70;;;26.70;99.90;;;;;;5091583;28;20650;-74
2022/01/27 05:21:55;;;;;;;6.38;0.82;;;26.70;99.90;;;;;;5076589;28;20225;-73
2022/01/27 05:24:28;;;;;;;5.57;0.80;;;26.80;99.90;;;;;;5074016;28;20562;-72
2022/01/27 05:26:59;;;;;;;7.97;0.85;;;26.80;99.90;;;;;;5085381;28;20242;-74
2022/01/27 05:29:29;;;;;;;4.40;0.93;;;26.80;99.90;;;;;;5074463;28;20203;-73
2022/01/27 05:32:00;;;;;;;6.07;0.80;;;26.70;99.90;;;;;;5076090;28;20189;-74
2022/01/27 05:34:32;;;;;;;4.63;0.88;;;26.80;99.90;;;;;;5091226;28;20208;-74
2022/01/27 05:37:03;;;;;;;4.53;1.00;;;26.80;99.90;;;;;;5083644;28;20193;-75
2022/01/27 05:39:36;;;;;;;3.55;0.98;;;26.70;99.90;;;;;;5083440;28;20189;-74
2022/01/27 05:42:07;;;;;;;5.07;0.80;;;26.60;99.90;;;;;;5079648;28;20216;-75
2022/01/27 05:44:37;;;;;;;5.05;0.90;;;26.50;99.90;;;;;;5079421;28;20188;-75
2022/01/27 05:47:08;;;;;;;5.28;0.80;;;26.40;99.90;;;;;;5085561;28;20188;-75
2022/01/27 05:49:40;;;;;;;7.43;0.93;;;26.20;99.90;;;;;;5074546;28;20185;-74
2022/01/27 05:52:11;;;;;;;4.15;0.70;;;26.10;99.90;;;;;;5079729;28;20192;-74
2022/01/27 05:54:45;;;;;;;3.85;0.70;;;26.00;99.90;;;;;;5076258;28;20193;-75
2022/01/27 05:57:15;;;;;;;7.22;0.70;;;26.00;99.90;;;;;;5074130;28;20217;-74
2022/01/27 05:59:46;;;;;;;2.47;0.60;;;25.90;99.90;;;;;;5075263;28;20250;-75
2022/01/27 06:02:17;;;;;;;3.95;0.77;;;25.90;99.90;;;;;;5085152;28;20228;-75
2022/01/27 06:04:47;;;;;;;6.47;0.98;;;25.90;99.90;;;;;;5081686;28;20239;-75
2022/01/27 06:07:18;;;;;;;4.57;0.70;;;25.90;99.90;;;;;;5073680;28;20189;-75
2022/01/27 06:09:52;;;;;;;4.22;1.10;;;25.90;99.90;;;;;;5074792;28;20189;-75
2022/01/27 06:12:22;;;;;;;5.05;0.75;;;25.90;99.90;;;;;;5085149;28;20268;-74
2022/01/27 06:14:53;;;;;;;4.65;0.90;;;25.80;99.90;;;;;;5090625;28;20192;-75
2022/01/27 06:17:24;;;;;;;5.85;1.00;;;25.80;99.90;;;;;;5078828;28;20697;-75
2022/01/27 06:19:55;;;;;;;5.45;1.02;;;25.80;99.90;;;;;;5084666;28;20238;-76
2022/01/27 06:22:26;;;;;;;3.97;0.90;;;25.70;99.90;;;;;;5092465;28;20212;-75
2022/01/27 06:24:59;;;;;;;3.33;0.70;;;25.70;99.90;;;;;;5084093;28;20188;-76
2022/01/27 06:27:29;;;;;;;4.63;0.70;;;25.70;99.90;;;;;;5084325;28;20188;-75
2022/01/27 06:30:00;;;;;;;6.15;0.90;;;25.70;99.90;;;;;;5073799;28;20203;-77
2022/01/27 06:32:31;;;;;;;6.45;0.80;;;25.70;99.90;;;;;;5080116;28;20196;-74
2022/01/27 06:35:03;;;;;;;4.47;1.00;;;25.80;99.90;;;;;;5085069;28;20249;-76
2022/01/27 06:37:34;;;;;;;6.90;1.00;;;25.70;99.90;;;;;;5072280;28;20224;-76
2022/01/27 06:40:10;;;;;;;7.40;0.82;;;25.70;99.90;;;;;;5077540;28;20268;-74
2022/01/27 06:42:41;;;;;;;4.20;0.73;;;25.70;99.90;;;;;;5076934;28;20220;-74
2022/01/27 06:45:12;;;;;;;3.35;0.70;;;25.70;99.90;;;;;;5082474;28;20570;-76
2022/01/27 06:47:43;;;;;;;4.72;0.70;;;25.50;99.90;;;;;;5083941;28;20181;-75
2022/01/27 06:50:14;;;;;;;6.78;0.90;;;25.50;99.90;;;;;;5085637;28;20207;-76
2022/01/27 06:52:45;;;;;;;4.32;0.77;;;25.50;99.90;;;;;;5086002;28;20187;-75
2022/01/27 06:55:18;;;;;;;4.18;0.80;;;25.60;99.90;;;;;;5082646;28;20235;-75
2022/01/27 06:57:50;;;;;;;7.00;1.00;;;25.50;99.90;;;;;;5084216;28;20270;-76
2022/01/27 07:00:21;;;;;;;9.10;0.90;;;25.50;99.90;;;;;;5083946;28;20191;-76
2022/01/27 07:02:51;;;;;;;5.57;0.98;;;25.50;99.90;;;;;;5076638;28;20698;-76
2022/01/27 07:05:22;;;;;;;8.05;0.85;;;25.50;99.90;;;;;;5071858;28;20192;-79
2022/01/27 07:07:53;;;;;;;4.32;0.80;;;25.40;99.90;;;;;;5072757;28;20563;-75
2022/01/27 07:10:26;;;;;;;4.88;0.95;;;25.40;99.90;;;;;;5086445;28;20193;-77
2022/01/27 07:12:56;;;;;;;5.20;1.00;;;25.40;99.90;;;;;;5074385;28;20546;-75
2022/01/27 07:15:28;;;;;;;4.40;0.82;;;25.40;99.90;;;;;;5081045;28;20196;-76
2022/01/27 07:17:59;;;;;;;3.80;0.70;;;25.40;99.90;;;;;;5076994;28;20189;-77
2022/01/27 07:20:29;;;;;;;7.88;1.17;;;25.30;99.90;;;;;;5072538;28;20710;-75
2022/01/27 07:23:00;;;;;;;5.72;0.68;;;25.30;99.90;;;;;;5074667;28;20209;-74
2022/01/27 07:25:33;;;;;;;6.80;1.00;;;25.30;99.90;;;;;;5072835;28;20276;-74
2022/01/27 07:28:03;;;;;;;6.22;1.27;;;25.20;99.90;;;;;;5072735;28;20254;-75
2022/01/27 07:30:34;;;;;;;6.95;1.15;;;25.20;99.90;;;;;;5081234;28;20203;-75
2022/01/27 07:33:06;;;;;;;2.47;0.70;;;25.20;99.90;;;;;;5085795;28;20276;-75
2022/01/27 07:35:37;;;;;;;4.20;0.80;;;25.00;99.90;;;;;;5076265;28;20540;-73
2022/01/27 07:38:07;;;;;;;4.97;0.95;;;25.00;99.90;;;;;;5082457;28;20189;-75
2022/01/27 07:40:40;;;;;;;5.80;1.15;;;24.90;99.90;;;;;;5077127;28;20196;-74
2022/01/27 07:43:13;;;;;;;4.68;0.90;;;24.90;99.90;;;;;;5076305;28;20679;-75
2022/01/27 07:45:44;;;;;;;5.93;0.90;;;24.80;99.90;;;;;;5083501;28;20180;-74
2022/01/27 07:48:15;;;;;;;7.10;0.82;;;24.80;99.90;;;;;;5083561;28;20272;-73
2022/01/27 07:50:46;;;;;;;3.97;0.95;;;24.80;99.90;;;;;;5078864;28;20196;-76
2022/01/27 07:53:16;;;;;;;5.28;1.00;;;24.70;99.90;;;;;;5083747;28;20189;-76
2022/01/27 07:55:49;;;;;;;4.10;0.70;;;24.70;99.90;;;;;;5081476;28;20225;-75
2022/01/27 07:58:19;;;;;;;5.78;1.13;;;24.70;99.90;;;;;;5081524;28;20189;-75
2022/01/27 08:00:50;;;;;;;6.93;0.90;;;24.70;99.90;;;;;;5081264;28;20231;-76
2022/01/27 08:03:21;;;;;;;5.28;0.85;;;24.60;99.90;;;;;;5087378;28;20253;-76
2022/01/27 08:05:51;;;;;;;5.07;1.00;;;24.60;99.90;;;;;;5081423;28;20185;-76
2022/01/27 08:08:23;;;;;;;4.95;0.95;;;24.60;99.90;;;;;;5080974;28;20192;-77
2022/01/27 08:10:57;;;;;;;5.03;1.10;;;24.60;99.90;;;;;;5086511;28;20189;-77
2022/01/27 08:13:28;;;;;;;7.90;0.90;;;24.50;99.90;;;;;;5077950;28;20238;-75
2022/01/27 08:15:59;;;;;;;3.47;0.88;;;24.50;99.90;;;;;;5084636;28;20593;-77
2022/01/27 08:18:29;;;;;;;7.03;0.95;;;24.50;99.90;;;;;;5091010;28;20188;-75
2022/01/27 08:21:00;;;;;;;3.60;0.82;;;24.50;99.90;;;;;;5086580;28;20199;-76
2022/01/27 08:23:31;;;;;;;7.00;1.00;;;24.50;99.90;;;;;;5080991;28;20205;-75
2022/01/27 08:26:07;;;;;;;4.53;0.93;;;24.40;99.90;;;;;;5084478;28;20695;-75
2022/01/27 08:28:42;;;;;;;4.28;1.02;;;24.40;99.90;;;;;;5081164;28;20212;-75
2022/01/27 08:31:14;;;;;;;5.82;1.13;;;24.40;99.90;;;;;;5089592;28;20189;-76
2022/01/27 08:33:45;;;;;;;8.80;0.98;;;24.40;99.90;;;;;;5092162;28;20188;-75
2022/01/27 08:36:17;;;;;;;8.10;1.30;;;24.30;99.90;;;;;;5088389;28;20184;-75
2022/01/27 08:38:47;;;;;;;7.32;0.85;;;24.30;99.90;;;;;;5081748;28;20185;-76
2022/01/27 08:41:20;;;;;;;5.43;1.00;;;24.30;99.90;;;;;;5088037;28;20192;-74
2022/01/27 08:43:53;;;;;;;6.97;1.08;;;24.30;99.90;;;;;;5077526;28;20208;-75
2022/01/27 08:46:24;;;;;;;7.55;1.17;;;24.30;99.90;;;;;;5078747;28;20200;-74
2022/01/27 08:48:54;;;;;;;5.97;1.00;;;24.30;99.90;;;;;;5075135;28;20189;-74
2022/01/27 08:51:26;;;;;;;7.57;1.10;;;24.20;99.90;;;;;;5084214;28;20499;-75
2022/01/27 08:53:57;;;;;;;9.05;1.13;;;24.20;99.90;;;;;;5075198;28;20258;-75
2022/01/27 08:56:31;;;;;;;5.75;0.90;;;24.20;99.90;;;;;;5078010;28;20224;-75
2022/01/27 08:59:02;;;;;;;6.22;1.00;;;24.20;99.90;;;;;;5086510;28;20192;-75
2022/01/27 09:01:33;;;;;;;9.73;1.13;;;24.20;99.90;;;;;;5085957;28;20586;-76
2022/01/27 09:04:03;;;;;;;7.05;0.82;;;24.10;99.90;;;;;;5085032;28;20213;-75
2022/01/27 09:06:34;;;;;;;5.00;0.93;;;24.10;99.90;;;;;;5087143;28;20184;-76
2022/01/27 09:09:05;;;;;;;7.97;1.20;;;24.10;99.90;;;;;;5087164;28;20189;-75
2022/01/27 09:11:39;;;;;;;4.88;0.80;;;24.10;99.90;;;;;;5078522;28;20196;-75
2022/01/27 09:14:10;;;;;;;1.65;0.63;;;24.10;99.90;;;;;;5084207;28;20191;-75
2022/01/27 09:16:42;;;;;;;4.32;0.80;;;24.10;99.90;;;;;;5083259;28;20194;-75
2022/01/27 09:19:13;;;;;;;4.22;0.85;;;24.10;99.90;;;;;;5088529;28;20188;-75
2022/01/27 09:21:45;;;;;;;6.30;1.00;;;24.00;99.90;;;;;;5084968;28;20181;-75
2022/01/27 09:24:18;;;;;;;7.57;1.13;;;24.00;99.90;;;;;;5076850;28;20232;-74
2022/01/27 09:27:00;;;;;;;7.75;1.13;;;24.00;99.90;;;;;;5081962;28;20189;-75
2022/01/27 09:29:31;;;;;;;9.88;1.00;;;24.00;99.90;;;;;;5074089;28;20553;-76
2022/01/27 09:32:03;;;;;;;9.13;1.40;;;24.00;99.90;;;;;;5073466;28;20193;-74
2022/01/27 09:34:35;;;;;;;5.20;1.00;;;24.00;99.90;;;;;;5073126;28;20194;-75
2022/01/27 09:37:06;;;;;;;11.20;1.20;;;23.90;99.90;;;;;;5074190;28;20565;-76
2022/01/27 09:39:37;;;;;;;5.93;1.30;;;23.90;99.90;;;;;;5073448;28;20250;-75
2022/01/27 09:42:10;;;;;;;6.47;1.40;;;23.90;99.90;;;;;;5072313;28;20270;-75
2022/01/27 09:44:46;;;;;;;9.45;1.10;;;23.90;99.90;;;;;;5072586;28;20236;-75
2022/01/27 09:47:17;;;;;;;7.30;1.05;;;23.90;99.90;;;;;;5073489;28;20271;-74
2022/01/27 09:50:03;;;;;;;7.07;1.02;;;23.90;99.90;;;;;;5084779;28;20607;-75
2022/01/27 09:52:35;;;;;;;10.23;1.27;;;23.90;99.90;;;;;;5081892;28;20188;-75
2022/01/27 09:55:06;;;;;;;10.15;1.25;;;23.90;99.90;;;;;;5078760;28;20703;-74
2022/01/27 09:57:38;;;;;;;7.53;1.20;;;23.90;99.90;;;;;;5083267;28;20211;-75
2022/01/27 10:00:10;;;;;;;4.22;1.00;;;23.90;99.90;;;;;;5077101;28;20193;-74
2022/01/27 10:02:41;;;;;;;7.93;1.30;;;23.80;99.90;;;;;;5074335;28;20189;-75
2022/01/27 10:05:14;;;;;;;6.88;1.40;;;23.80;99.90;;;;;;5079743;28;20212;-75
2022/01/27 10:07:45;;;;;;;10.80;1.20;;;23.80;99.90;;;;;;5073131;28;20533;-75
2022/01/27 10:10:17;;;;;;;8.23;1.33;;;23.80;99.90;;;;;;5078942;28;20188;-75
2022/01/27 10:12:53;;;;;;;5.00;1.40;;;23.80;99.90;;;;;;5073383;28;20192;-75
2022/01/27 10:15:27;;;;;;;6.97;1.50;;;23.70;99.90;;;;;;5075107;28;20197;-75
2022/01/27 10:18:12;;;;;;;7.35;1.30;;;23.70;99.90;;;;;;5080445;28;20192;-75
2022/01/27 10:20:45;;;;;;;8.88;1.38;;;23.70;99.90;;;;;;5074291;28;20193;-75
2022/01/27 10:23:18;;;;;;;8.45;1.17;;;23.70;99.90;;;;;;5076925;28;20236;-76
2022/01/27 10:25:52;;;;;;;8.55;1.05;;;23.70;99.90;;;;;;5074452;28;20662;-75
2022/01/27 10:28:42;;;;;;;7.15;1.50;;;23.70;99.90;;;;;;5085530;28;20696;-74
2022/01/27 10:31:18;;;;;;;7.85;1.25;;;23.70;99.90;;;;;;5075520;28;20188;-75
2022/01/27 10:33:54;;;;;;;9.05;1.17;;;23.70;99.90;;;;;;5077858;28;20258;-75
2022/01/27 10:36:26;;;;;;;9.73;1.05;;;23.70;99.90;;;;;;5081138;28;20188;-74
2022/01/27 10:39:00;;;;;;;8.32;1.08;;;23.70;99.90;;;;;;5081606;28;20185;-75
2022/01/27 10:41:33;;;;;;;7.07;1.15;;;23.70;99.90;;;;;;5072509;28;20196;-76
2022/01/27 10:44:16;;;;;;;11.00;1.10;;;23.70;99.90;;;;;;5071896;28;20213;-76
2022/01/27 10:47:05;;;;;;;5.95;1.00;;;23.70;99.90;;;;;;5072742;28;20193;-75
2022/01/27 10:49:42;;;;;;;11.65;1.38;;;23.70;99.90;;;;;;5072881;28;20238;-76
2022/01/27 10:52:15;;;;;;;7.38;1.17;;;23.70;99.90;;;;;;5080166;28;20722;-75
2022/01/27 10:54:56;;;;;;;6.32;1.20;;;23.70;99.90;;;;;;5071701;28;20644;-75
2022/01/27 10:57:28;;;;;;;6.75;1.30;;;23.70;99.90;;;;;;5072105;28;20196;-75
2022/01/27 11:00:14;;;;;;;5.78;0.93;;;23.70;99.90;;;;;;5070887;28;20188;-74
2022/01/27 11:02:53;;;;;;;7.88;1.27;;;23.70;99.90;;;;;;5071867;28;20228;-76
2022/01/27 11:05:25;;;;;;;6.40;0.90;;;23.70;99.90;;;;;;5074414;28;20214;-75
2022/01/27 11:07:57;;;;;;;6.70;1.00;;;23.70;99.90;;;;;;5078008;28;20184;-75
2022/01/27 11:10:29;;;;;;;4.68;1.20;;;23.70;99.90;;;;;;5074032;28;20189;-75
2022/01/27 11:13:00;;;;;;;9.60;1.02;;;23.70;99.90;;;;;;5080166;28;20196;-75
2022/01/27 11:15:37;;;;;;;7.13;0.90;;;23.70;99.90;;;;;;5071892;28;20596;-74
2022/01/27 11:18:08;;;;;;;6.38;1.20;;;23.70;99.90;;;;;;5081349;28;20191;-75
2022/01/27 11:20:51;;;;;;;8.18;1.30;;;23.70;99.90;;;;;;5083257;28;20193;-76
2022/01/27 11:23:47;;;;;;;7.07;0.90;;;23.70;99.90;;;;;;5076654;28;20203;-74
2022/01/27 11:26:23;;;;;;;7.97;1.00;;;23.80;99.90;;;;;;5076816;28;20185;-75
2022/01/27 11:28:55;;;;;;;5.18;1.10;;;23.80;99.90;;;;;;5074214;28;20193;-74
2022/01/27 11:31:38;;;;;;;7.93;1.40;;;23.80;99.90;;;;;;5074510;28;20533;-75
2022/01/27 11:34:10;;;;;;;8.85;1.40;;;23.80;99.90;;;;;;5080756;28;20193;-74
2022/01/27 11:37:00;;;;;;;8.40;1.20;;;23.80;99.90;;;;;;5071960;28;20282;-74
2022/01/27 11:39:55;;;;;;;4.32;1.10;;;23.80;99.90;;;;;;5083601;28;20573;-74
2022/01/27 11:43:01;;;;;;;10.25;1.15;;;23.80;99.90;;;;;;5081230;28;20279;-74
2022/01/27 11:45:36;;;;;;;5.72;1.08;;;23.80;99.90;;;;;;5075692;28;20224;-74
2022/01/27 11:48:10;;;;;;;7.85;1.13;;;23.80;99.90;;;;;;5076712;28;20189;-75
2022/01/27 11:50:51;;;;;;;10.38;1.30;;;23.80;99.90;;;;;;5080390;28;20199;-74
2022/01/27 11:53:40;;;;;;;9.10;1.27;;;23.80;99.90;;;;;;5074719;28;20204;-75
2022/01/27 11:56:16;;;;;;;9.00;1.42;;;23.80;99.90;;;;;;5071996;28;20560;-74
2022/01/27 11:58:48;;;;;;;6.35;1.20;;;23.70;99.90;;;;;;5075219;28;20320;-75
2022/01/27 12:01:25;;;;;;;6.60;1.20;;;23.70;99.90;;;;;;5075702;28;20228;-75
2022/01/27 12:04:17;;;;;;;8.43;1.17;;;23.70;99.90;;;;;;5080053;28;20308;-74
2022/01/27 12:07:09;;;;;;;9.05;1.15;;;23.80;99.90;;;;;;5070836;28;20232;-75
2022/01/27 12:09:41;;;;;;;7.90;1.30;;;23.70;99.90;;;;;;5083626;28;20185;-74
2022/01/27 12:12:30;;;;;;;8.68;1.17;;;23.80;99.90;;;;;;5072357;28;20565;-75
2022/01/27 12:15:11;;;;;;;6.43;1.00;;;23.70;99.90;;;;;;5077312;28;20264;-74
2022/01/27 12:17:43;;;;;;;9.02;1.25;;;23.70;99.90;;;;;;5081347;28;20534;-75
2022/01/27 12:20:16;;;;;;;8.15;0.95;;;23.70;99.90;;;;;;5073416;28;20251;-75
2022/01/27 12:23:15;;;;;;;10.10;1.92;;;23.70;99.90;;;;;;5076729;28;20258;-75
2022/01/27 12:26:03;;;;;;;8.88;1.20;;;23.70;99.90;;;;;;5078215;28;20270;-75
2022/01/27 12:28:37;;;;;;;7.10;1.13;;;23.70;99.90;;;;;;5085913;28;20268;-74
2022/01/27 12:31:08;;;;;;;9.68;1.65;;;23.70;99.90;;;;;;5086472;28;20231;-75
2022/01/27 12:33:40;;;;;;;7.95;1.20;;;23.70;99.90;;;;;;5080803;28;20189;-74
2022/01/27 12:36:13;;;;;;;8.00;1.17;;;23.70;99.90;;;;;;5081151;28;20639;-74
2022/01/27 12:38:44;;;;;;;6.63;1.20;;;23.70;99.90;;;;;;5083605;28;20648;-75
2022/01/27 12:41:15;;;;;;;7.20;1.15;;;23.70;99.90;;;;;;5085647;28;20188;-74
2022/01/27 12:43:46;;;;;;;7.07;1.13;;;23.70;99.90;;;;;;5085405;28;20197;-75
2022/01/27 12:46:17;;;;;;;7.18;1.33;;;23.70;99.90;;;;;;5081580;28;20578;-76
2022/01/27 12:48:50;;;;;;;7.90;1.08;;;23.70;99.90;;;;;;5085287;28;20560;-75
2022/01/27 12:51:24;;;;;;;8.07;1.13;;;23.70;99.90;;;;;;5076047;28;20189;-75
2022/01/27 12:54:03;;;;;;;5.80;1.02;;;23.70;99.90;;;;;;5090353;28;20636;-74
2022/01/27 12:56:37;;;;;;;6.07;1.30;;;23.70;99.90;;;;;;5086572;28;20252;-74
2022/01/27 12:59:16;;;;;;;8.48;1.08;;;23.70;99.90;;;;;;5075221;28;20200;-75
2022/01/27 13:01:57;;;;;;;8.15;1.30;;;23.70;99.90;;;;;;5083305;28;20221;-74
2022/01/27 13:04:28;;;;;;;8.65;1.30;;;23.70;99.90;;;;;;5081104;28;20307;-75
2022/01/27 13:07:01;;;;;;;6.90;1.15;;;23.70;99.90;;;;;;5083536;28;20192;-75
2022/01/27 13:09:33;;;;;;;8.00;1.33;;;23.70;99.90;;;;;;5082676;28;20244;-74
2022/01/27 13:12:17;;;;;;;7.63;1.20;;;23.70;99.90;;;;;;5079432;28;20280;-75
2022/01/27 13:15:03;;;;;;;8.43;1.05;;;23.70;99.90;;;;;;5074681;28;20247;-75
2022/01/27 13:17:43;;;;;;;9.02;1.30;;;23.70;99.90;;;;;;5078386;28;20220;-73
2022/01/27 13:20:20;;;;;;;8.05;1.10;;;23.70;99.90;;;;;;5087639;28;20268;-75
2022/01/27 13:22:58;;;;;;;8.38;1.20;;;23.70;99.90;;;;;;5081970;28;20291;-74
2022/01/27 13:25:40;;;;;;;7.93;1.30;;;23.70;99.90;;;;;;5085964;28;20215;-74
2022/01/27 13:28:15;;;;;;;8.07;1.35;;;23.70;99.90;;;;;;5085674;28;20197;-74
2022/01/27 13:30:47;;;;;;;9.80;1.10;;;23.70;99.90;;;;;;5086608;28;20200;-74
2022/01/27 13:33:19;;;;;;;8.25;1.30;;;23.70;99.90;;;;;;5074045;28;20185;-75
2022/01/27 13:35:51;;;;;;;7.18;1.17;;;23.70;99.90;;;;;;5074102;28;20231;-76
2022/01/27 13:38:27;;;;;;;10.65;1.20;;;23.70;99.90;;;;;;5086340;28;20190;-75